sensor_id;sensor_type;location;lat;lon;timestamp;P1;durP1;ratioP1;P2;durP2;ratioP2
84303;SDS011;74469;52.520;16.998;2023-12-29T00:01:19;6.30;;;3.80;;
84303;SDS011;74469;52.520;16.998;2023-12-29T00:06:21;7.30;;;4.40;;
84303;SDS011;74469;52.520;16.998;2023-12-29T00:11:24;9.00;;;4.00;;
84303;SDS011;74469;52.520;16.998;2023-12-29T00:16:27;7.10;;;4.00;;
84303;SDS011;74469;52.520;16.998;2023-12-29T00:21:30;6.90;;;4.10;;
84303;SDS011;74469;52.520;16.998;2023-12-29T00:26:32;7.30;;;4.00;;
84303;SDS011;74469;52.520;16.998;2023-12-29T00:31:35;7.30;;;4.50;;
84303;SDS011;74469;52.520;16.998;2023-12-29T00:36:38;6.90;;;3.80;;
84303;SDS011;74469;52.520;16.998;2023-12-29T00:41:41;5.60;;;3.60;;
84303;SDS011;74469;52.520;16.998;2023-12-29T00:46:44;7.20;;;4.00;;
84303;SDS011;74469;52.520;16.998;2023-12-29T00:51:47;7.00;;;3.30;;
84303;SDS011;74469;52.520;16.998;2023-12-29T00:56:50;8.40;;;4.00;;
84303;SDS011;74469;52.520;16.998;2023-12-29T01:01:54;6.90;;;4.20;;
84303;SDS011;74469;52.520;16.998;2023-12-29T01:06:56;6.00;;;3.10;;
84303;SDS011;74469;52.520;16.998;2023-12-29T01:11:59;8.00;;;3.50;;
84303;SDS011;74469;52.520;16.998;2023-12-29T01:17:02;5.20;;;3.10;;
84303;SDS011;74469;52.520;16.998;2023-12-29T01:22:05;5.00;;;3.10;;
84303;SDS011;74469;52.520;16.998;2023-12-29T01:27:08;6.40;;;3.40;;
84303;SDS011;74469;52.520;16.998;2023-12-29T01:32:10;8.60;;;3.60;;
84303;SDS011;74469;52.520;16.998;2023-12-29T01:37:13;5.10;;;3.90;;
84303;SDS011;74469;52.520;16.998;2023-12-29T01:42:16;4.80;;;3.20;;
84303;SDS011;74469;52.520;16.998;2023-12-29T01:47:19;5.50;;;3.20;;
84303;SDS011;74469;52.520;16.998;2023-12-29T01:52:22;7.40;;;3.30;;
84303;SDS011;74469;52.520;16.998;2023-12-29T01:57:25;8.80;;;3.10;;
84303;SDS011;74469;52.520;16.998;2023-12-29T02:02:28;5.00;;;3.10;;
84303;SDS011;74469;52.520;16.998;2023-12-29T02:07:31;6.70;;;2.90;;
84303;SDS011;74469;52.520;16.998;2023-12-29T02:12:34;5.50;;;3.20;;
84303;SDS011;74469;52.520;16.998;2023-12-29T02:17:51;5.70;;;3.10;;
84303;SDS011;74469;52.520;16.998;2023-12-29T02:22:57;7.30;;;3.40;;
84303;SDS011;74469;52.520;16.998;2023-12-29T02:28:11;6.20;;;3.50;;
84303;SDS011;74469;52.520;16.998;2023-12-29T02:33:25;4.60;;;2.80;;
84303;SDS011;74469;52.520;16.998;2023-12-29T02:38:29;4.40;;;2.70;;
84303;SDS011;74469;52.520;16.998;2023-12-29T02:43:33;5.10;;;2.80;;
84303;SDS011;74469;52.520;16.998;2023-12-29T02:48:36;5.20;;;2.80;;
84303;SDS011;74469;52.520;16.998;2023-12-29T02:53:38;6.70;;;3.30;;
84303;SDS011;74469;52.520;16.998;2023-12-29T02:58:41;3.60;;;2.90;;
84303;SDS011;74469;52.520;16.998;2023-12-29T03:03:44;3.50;;;2.50;;
84303;SDS011;74469;52.520;16.998;2023-12-29T03:08:46;3.40;;;2.10;;
84303;SDS011;74469;52.520;16.998;2023-12-29T03:13:49;3.90;;;2.60;;
84303;SDS011;74469;52.520;16.998;2023-12-29T03:18:52;4.10;;;3.10;;
84303;SDS011;74469;52.520;16.998;2023-12-29T03:23:55;2.80;;;1.90;;
84303;SDS011;74469;52.520;16.998;2023-12-29T03:28:58;7.20;;;2.80;;
84303;SDS011;74469;52.520;16.998;2023-12-29T03:34:00;3.60;;;2.70;;
84303;SDS011;74469;52.520;16.998;2023-12-29T03:39:03;3.90;;;2.30;;
84303;SDS011;74469;52.520;16.998;2023-12-29T03:44:07;4.10;;;2.40;;
84303;SDS011;74469;52.520;16.998;2023-12-29T03:49:09;4.80;;;2.60;;
84303;SDS011;74469;52.520;16.998;2023-12-29T03:54:12;3.40;;;2.70;;
84303;SDS011;74469;52.520;16.998;2023-12-29T03:59:15;4.60;;;2.70;;
84303;SDS011;74469;52.520;16.998;2023-12-29T04:04:17;4.20;;;2.20;;
84303;SDS011;74469;52.520;16.998;2023-12-29T04:09:20;4.00;;;2.90;;
84303;SDS011;74469;52.520;16.998;2023-12-29T04:14:23;3.40;;;2.60;;
84303;SDS011;74469;52.520;16.998;2023-12-29T04:19:26;3.10;;;2.10;;
84303;SDS011;74469;52.520;16.998;2023-12-29T04:24:28;4.10;;;2.10;;
84303;SDS011;74469;52.520;16.998;2023-12-29T04:29:32;3.60;;;2.40;;
84303;SDS011;74469;52.520;16.998;2023-12-29T04:34:35;4.20;;;3.10;;
84303;SDS011;74469;52.520;16.998;2023-12-29T04:39:40;2.90;;;1.90;;
84303;SDS011;74469;52.520;16.998;2023-12-29T04:44:43;3.00;;;2.20;;
84303;SDS011;74469;52.520;16.998;2023-12-29T04:49:49;5.20;;;2.10;;
84303;SDS011;74469;52.520;16.998;2023-12-29T04:54:52;3.70;;;2.70;;
84303;SDS011;74469;52.520;16.998;2023-12-29T04:59:55;2.40;;;1.90;;
84303;SDS011;74469;52.520;16.998;2023-12-29T05:04:57;3.10;;;2.20;;
84303;SDS011;74469;52.520;16.998;2023-12-29T05:10:00;2.80;;;2.30;;
84303;SDS011;74469;52.520;16.998;2023-12-29T05:15:03;3.20;;;2.30;;
84303;SDS011;74469;52.520;16.998;2023-12-29T05:20:07;3.50;;;1.70;;
84303;SDS011;74469;52.520;16.998;2023-12-29T05:25:11;3.20;;;1.90;;
84303;SDS011;74469;52.520;16.998;2023-12-29T05:30:14;2.40;;;1.70;;
84303;SDS011;74469;52.520;16.998;2023-12-29T05:35:16;3.30;;;2.10;;
84303;SDS011;74469;52.520;16.998;2023-12-29T05:40:19;1.70;;;1.50;;
84303;SDS011;74469;52.520;16.998;2023-12-29T05:45:22;2.80;;;1.80;;
84303;SDS011;74469;52.520;16.998;2023-12-29T05:50:24;2.40;;;1.70;;
84303;SDS011;74469;52.520;16.998;2023-12-29T05:55:27;4.00;;;1.70;;
84303;SDS011;74469;52.520;16.998;2023-12-29T06:00:30;2.70;;;1.90;;
84303;SDS011;74469;52.520;16.998;2023-12-29T06:05:33;4.00;;;1.90;;
84303;SDS011;74469;52.520;16.998;2023-12-29T06:10:35;5.00;;;2.50;;
84303;SDS011;74469;52.520;16.998;2023-12-29T06:15:38;2.50;;;2.10;;
84303;SDS011;74469;52.520;16.998;2023-12-29T06:20:41;2.30;;;1.90;;
84303;SDS011;74469;52.520;16.998;2023-12-29T06:25:44;2.70;;;2.00;;
84303;SDS011;74469;52.520;16.998;2023-12-29T06:30:47;2.90;;;1.80;;
84303;SDS011;74469;52.520;16.998;2023-12-29T06:35:50;3.90;;;2.30;;
84303;SDS011;74469;52.520;16.998;2023-12-29T06:40:53;4.40;;;2.20;;
84303;SDS011;74469;52.520;16.998;2023-12-29T06:45:56;2.30;;;1.80;;
84303;SDS011;74469;52.520;16.998;2023-12-29T06:50:59;2.60;;;1.90;;
84303;SDS011;74469;52.520;16.998;2023-12-29T06:56:01;3.30;;;1.90;;
84303;SDS011;74469;52.520;16.998;2023-12-29T07:01:04;3.60;;;2.00;;
84303;SDS011;74469;52.520;16.998;2023-12-29T07:06:07;3.10;;;1.90;;
84303;SDS011;74469;52.520;16.998;2023-12-29T07:11:10;2.60;;;1.70;;
84303;SDS011;74469;52.520;16.998;2023-12-29T07:16:16;2.50;;;1.70;;
84303;SDS011;74469;52.520;16.998;2023-12-29T07:21:22;3.10;;;2.10;;
84303;SDS011;74469;52.520;16.998;2023-12-29T07:26:24;2.90;;;2.00;;
84303;SDS011;74469;52.520;16.998;2023-12-29T07:31:27;3.10;;;1.70;;
84303;SDS011;74469;52.520;16.998;2023-12-29T07:36:30;2.70;;;1.60;;
84303;SDS011;74469;52.520;16.998;2023-12-29T07:41:33;2.00;;;1.60;;
84303;SDS011;74469;52.520;16.998;2023-12-29T07:46:36;5.60;;;1.60;;
84303;SDS011;74469;52.520;16.998;2023-12-29T07:51:40;2.50;;;1.90;;
84303;SDS011;74469;52.520;16.998;2023-12-29T07:56:43;3.00;;;1.80;;
84303;SDS011;74469;52.520;16.998;2023-12-29T08:01:46;2.80;;;2.10;;
84303;SDS011;74469;52.520;16.998;2023-12-29T08:06:48;2.10;;;1.70;;
84303;SDS011;74469;52.520;16.998;2023-12-29T08:11:51;2.00;;;1.60;;
84303;SDS011;74469;52.520;16.998;2023-12-29T08:16:54;2.00;;;1.60;;
84303;SDS011;74469;52.520;16.998;2023-12-29T08:21:59;3.20;;;2.30;;
84303;SDS011;74469;52.520;16.998;2023-12-29T08:27:02;2.80;;;1.90;;
84303;SDS011;74469;52.520;16.998;2023-12-29T08:32:06;2.20;;;1.60;;
84303;SDS011;74469;52.520;16.998;2023-12-29T08:37:09;5.60;;;2.90;;
84303;SDS011;74469;52.520;16.998;2023-12-29T08:42:12;3.90;;;3.00;;
84303;SDS011;74469;52.520;16.998;2023-12-29T08:47:15;4.60;;;1.80;;
84303;SDS011;74469;52.520;16.998;2023-12-29T08:52:17;2.90;;;1.80;;
84303;SDS011;74469;52.520;16.998;2023-12-29T08:57:20;3.20;;;2.00;;
84303;SDS011;74469;52.520;16.998;2023-12-29T09:02:23;2.70;;;2.10;;
84303;SDS011;74469;52.520;16.998;2023-12-29T09:07:25;3.10;;;2.40;;
84303;SDS011;74469;52.520;16.998;2023-12-29T09:12:30;2.50;;;1.60;;
84303;SDS011;74469;52.520;16.998;2023-12-29T09:17:33;3.70;;;2.70;;
84303;SDS011;74469;52.520;16.998;2023-12-29T09:22:36;3.80;;;1.70;;
84303;SDS011;74469;52.520;16.998;2023-12-29T09:27:39;5.80;;;1.80;;
84303;SDS011;74469;52.520;16.998;2023-12-29T09:32:42;3.30;;;2.40;;
84303;SDS011;74469;52.520;16.998;2023-12-29T09:37:44;1.80;;;1.50;;
84303;SDS011;74469;52.520;16.998;2023-12-29T09:42:47;3.60;;;2.00;;
84303;SDS011;74469;52.520;16.998;2023-12-29T09:47:51;2.90;;;1.80;;
84303;SDS011;74469;52.520;16.998;2023-12-29T09:52:57;2.90;;;2.00;;
84303;SDS011;74469;52.520;16.998;2023-12-29T09:58:00;4.60;;;1.60;;
84303;SDS011;74469;52.520;16.998;2023-12-29T10:03:03;1.90;;;1.80;;
84303;SDS011;74469;52.520;16.998;2023-12-29T10:08:07;3.20;;;1.60;;
84303;SDS011;74469;52.520;16.998;2023-12-29T10:13:12;3.60;;;1.30;;
84303;SDS011;74469;52.520;16.998;2023-12-29T10:18:21;1.60;;;1.20;;
84303;SDS011;74469;52.520;16.998;2023-12-29T10:29:14;2.00;;;1.50;;
84303;SDS011;74469;52.520;16.998;2023-12-29T10:34:17;3.30;;;1.70;;
84303;SDS011;74469;52.520;16.998;2023-12-29T10:39:20;2.90;;;1.50;;
84303;SDS011;74469;52.520;16.998;2023-12-29T10:44:23;2.60;;;1.90;;
84303;SDS011;74469;52.520;16.998;2023-12-29T10:49:26;2.90;;;1.90;;
84303;SDS011;74469;52.520;16.998;2023-12-29T10:54:28;3.90;;;2.10;;
84303;SDS011;74469;52.520;16.998;2023-12-29T10:59:31;3.20;;;1.70;;
84303;SDS011;74469;52.520;16.998;2023-12-29T11:04:34;3.40;;;1.70;;
84303;SDS011;74469;52.520;16.998;2023-12-29T11:09:37;3.20;;;1.80;;
84303;SDS011;74469;52.520;16.998;2023-12-29T11:14:41;2.60;;;1.70;;
84303;SDS011;74469;52.520;16.998;2023-12-29T11:19:46;5.30;;;1.80;;
84303;SDS011;74469;52.520;16.998;2023-12-29T11:24:50;3.80;;;1.50;;
84303;SDS011;74469;52.520;16.998;2023-12-29T11:29:53;2.40;;;1.20;;
84303;SDS011;74469;52.520;16.998;2023-12-29T11:35:01;3.10;;;2.00;;
84303;SDS011;74469;52.520;16.998;2023-12-29T11:45:29;3.90;;;2.60;;
84303;SDS011;74469;52.520;16.998;2023-12-29T11:50:38;2.40;;;1.40;;
84303;SDS011;74469;52.520;16.998;2023-12-29T11:55:44;3.70;;;1.30;;
84303;SDS011;74469;52.520;16.998;2023-12-29T12:00:47;2.60;;;1.70;;
84303;SDS011;74469;52.520;16.998;2023-12-29T12:05:50;6.40;;;3.00;;
84303;SDS011;74469;52.520;16.998;2023-12-29T12:10:55;10.20;;;5.00;;
84303;SDS011;74469;52.520;16.998;2023-12-29T12:15:58;3.80;;;2.30;;
84303;SDS011;74469;52.520;16.998;2023-12-29T12:21:01;3.40;;;1.80;;
84303;SDS011;74469;52.520;16.998;2023-12-29T12:26:06;2.80;;;1.40;;
84303;SDS011;74469;52.520;16.998;2023-12-29T12:31:09;2.30;;;1.40;;
84303;SDS011;74469;52.520;16.998;2023-12-29T12:36:12;2.80;;;1.70;;
84303;SDS011;74469;52.520;16.998;2023-12-29T12:41:14;2.60;;;1.70;;
84303;SDS011;74469;52.520;16.998;2023-12-29T12:46:17;3.40;;;2.50;;
84303;SDS011;74469;52.520;16.998;2023-12-29T12:51:20;5.10;;;1.60;;
84303;SDS011;74469;52.520;16.998;2023-12-29T12:56:23;4.60;;;2.50;;
84303;SDS011;74469;52.520;16.998;2023-12-29T13:01:29;10.30;;;4.60;;
84303;SDS011;74469;52.520;16.998;2023-12-29T13:06:41;14.20;;;4.20;;
84303;SDS011;74469;52.520;16.998;2023-12-29T13:11:46;6.60;;;3.60;;
84303;SDS011;74469;52.520;16.998;2023-12-29T13:16:49;3.90;;;2.90;;
84303;SDS011;74469;52.520;16.998;2023-12-29T13:21:53;4.30;;;2.10;;
84303;SDS011;74469;52.520;16.998;2023-12-29T13:27:06;2.80;;;2.40;;
84303;SDS011;74469;52.520;16.998;2023-12-29T13:37:29;7.50;;;2.80;;
84303;SDS011;74469;52.520;16.998;2023-12-29T13:42:33;6.40;;;2.20;;
84303;SDS011;74469;52.520;16.998;2023-12-29T13:47:37;2.20;;;1.60;;
84303;SDS011;74469;52.520;16.998;2023-12-29T13:52:41;2.30;;;1.60;;
84303;SDS011;74469;52.520;16.998;2023-12-29T13:57:44;5.10;;;2.60;;
84303;SDS011;74469;52.520;16.998;2023-12-29T14:08:00;4.40;;;3.20;;
84303;SDS011;74469;52.520;16.998;2023-12-29T14:13:14;4.20;;;2.20;;
84303;SDS011;74469;52.520;16.998;2023-12-29T14:23:24;9.00;;;3.50;;
84303;SDS011;74469;52.520;16.998;2023-12-29T14:28:26;3.40;;;1.90;;
84303;SDS011;74469;52.520;16.998;2023-12-29T14:33:30;4.60;;;2.80;;
84303;SDS011;74469;52.520;16.998;2023-12-29T14:38:33;8.50;;;3.60;;
84303;SDS011;74469;52.520;16.998;2023-12-29T14:43:35;14.50;;;5.70;;
84303;SDS011;74469;52.520;16.998;2023-12-29T14:48:39;10.00;;;5.00;;
84303;SDS011;74469;52.520;16.998;2023-12-29T14:53:45;28.30;;;10.70;;
84303;SDS011;74469;52.520;16.998;2023-12-29T14:58:49;8.00;;;4.10;;
84303;SDS011;74469;52.520;16.998;2023-12-29T15:03:52;18.30;;;7.50;;
84303;SDS011;74469;52.520;16.998;2023-12-29T15:08:55;16.60;;;7.80;;
84303;SDS011;74469;52.520;16.998;2023-12-29T15:13:57;9.50;;;4.10;;
84303;SDS011;74469;52.520;16.998;2023-12-29T15:19:00;7.50;;;2.90;;
84303;SDS011;74469;52.520;16.998;2023-12-29T15:24:06;10.10;;;4.80;;
84303;SDS011;74469;52.520;16.998;2023-12-29T15:29:09;4.70;;;3.30;;
84303;SDS011;74469;52.520;16.998;2023-12-29T15:34:11;4.30;;;3.00;;
84303;SDS011;74469;52.520;16.998;2023-12-29T15:39:14;4.50;;;2.60;;
84303;SDS011;74469;52.520;16.998;2023-12-29T15:44:18;4.70;;;1.70;;
84303;SDS011;74469;52.520;16.998;2023-12-29T15:49:21;3.20;;;2.60;;
84303;SDS011;74469;52.520;16.998;2023-12-29T15:54:23;6.50;;;2.70;;
84303;SDS011;74469;52.520;16.998;2023-12-29T15:59:26;6.50;;;2.10;;
84303;SDS011;74469;52.520;16.998;2023-12-29T16:04:29;4.20;;;1.70;;
84303;SDS011;74469;52.520;16.998;2023-12-29T16:09:32;5.00;;;2.40;;
84303;SDS011;74469;52.520;16.998;2023-12-29T16:14:34;7.10;;;4.90;;
84303;SDS011;74469;52.520;16.998;2023-12-29T16:19:37;6.90;;;4.10;;
84303;SDS011;74469;52.520;16.998;2023-12-29T16:24:41;5.50;;;2.80;;
84303;SDS011;74469;52.520;16.998;2023-12-29T16:29:43;6.30;;;3.00;;
84303;SDS011;74469;52.520;16.998;2023-12-29T16:34:48;3.70;;;2.50;;
84303;SDS011;74469;52.520;16.998;2023-12-29T16:39:51;6.70;;;3.30;;
84303;SDS011;74469;52.520;16.998;2023-12-29T16:44:55;3.10;;;2.10;;
84303;SDS011;74469;52.520;16.998;2023-12-29T16:49:57;4.50;;;2.00;;
84303;SDS011;74469;52.520;16.998;2023-12-29T16:55:00;4.40;;;2.40;;
84303;SDS011;74469;52.520;16.998;2023-12-29T17:00:03;7.40;;;2.80;;
84303;SDS011;74469;52.520;16.998;2023-12-29T17:05:07;4.30;;;2.50;;
84303;SDS011;74469;52.520;16.998;2023-12-29T17:10:11;5.10;;;2.80;;
84303;SDS011;74469;52.520;16.998;2023-12-29T17:15:14;5.60;;;2.50;;
84303;SDS011;74469;52.520;16.998;2023-12-29T17:20:17;5.70;;;3.80;;
84303;SDS011;74469;52.520;16.998;2023-12-29T17:25:20;6.60;;;3.60;;
84303;SDS011;74469;52.520;16.998;2023-12-29T17:30:22;7.60;;;3.60;;
84303;SDS011;74469;52.520;16.998;2023-12-29T17:35:25;7.40;;;3.80;;
84303;SDS011;74469;52.520;16.998;2023-12-29T17:40:28;12.20;;;6.10;;
84303;SDS011;74469;52.520;16.998;2023-12-29T17:45:31;18.40;;;7.50;;
84303;SDS011;74469;52.520;16.998;2023-12-29T17:50:34;13.20;;;6.70;;
84303;SDS011;74469;52.520;16.998;2023-12-29T17:55:37;29.40;;;13.30;;
84303;SDS011;74469;52.520;16.998;2023-12-29T18:00:39;18.40;;;10.30;;
84303;SDS011;74469;52.520;16.998;2023-12-29T18:05:42;11.90;;;7.00;;
84303;SDS011;74469;52.520;16.998;2023-12-29T18:10:46;6.10;;;3.60;;
84303;SDS011;74469;52.520;16.998;2023-12-29T18:15:50;7.40;;;3.90;;
84303;SDS011;74469;52.520;16.998;2023-12-29T18:20:53;7.30;;;4.10;;
84303;SDS011;74469;52.520;16.998;2023-12-29T18:25:56;10.10;;;4.70;;
84303;SDS011;74469;52.520;16.998;2023-12-29T18:31:01;9.90;;;5.40;;
84303;SDS011;74469;52.520;16.998;2023-12-29T18:36:04;6.80;;;3.90;;
84303;SDS011;74469;52.520;16.998;2023-12-29T18:41:08;8.20;;;3.40;;
84303;SDS011;74469;52.520;16.998;2023-12-29T18:46:13;6.70;;;5.20;;
84303;SDS011;74469;52.520;16.998;2023-12-29T18:51:16;6.70;;;4.10;;
84303;SDS011;74469;52.520;16.998;2023-12-29T18:56:19;11.10;;;6.90;;
84303;SDS011;74469;52.520;16.998;2023-12-29T19:01:22;9.60;;;6.10;;
84303;SDS011;74469;52.520;16.998;2023-12-29T19:06:25;10.60;;;7.90;;
84303;SDS011;74469;52.520;16.998;2023-12-29T19:11:28;4.70;;;4.20;;
84303;SDS011;74469;52.520;16.998;2023-12-29T19:16:31;22.20;;;10.10;;
84303;SDS011;74469;52.520;16.998;2023-12-29T19:21:33;17.20;;;10.00;;
84303;SDS011;74469;52.520;16.998;2023-12-29T19:26:41;13.70;;;8.20;;
84303;SDS011;74469;52.520;16.998;2023-12-29T19:31:44;16.50;;;8.90;;
84303;SDS011;74469;52.520;16.998;2023-12-29T19:36:50;23.50;;;10.50;;
84303;SDS011;74469;52.520;16.998;2023-12-29T19:41:54;8.50;;;4.90;;
84303;SDS011;74469;52.520;16.998;2023-12-29T19:46:57;10.20;;;5.30;;
84303;SDS011;74469;52.520;16.998;2023-12-29T19:51:59;20.20;;;8.40;;
84303;SDS011;74469;52.520;16.998;2023-12-29T19:57:02;18.10;;;7.50;;
84303;SDS011;74469;52.520;16.998;2023-12-29T20:02:05;14.50;;;5.70;;
84303;SDS011;74469;52.520;16.998;2023-12-29T20:07:08;8.70;;;4.60;;
84303;SDS011;74469;52.520;16.998;2023-12-29T20:12:14;8.60;;;4.60;;
84303;SDS011;74469;52.520;16.998;2023-12-29T20:17:19;14.20;;;7.00;;
84303;SDS011;74469;52.520;16.998;2023-12-29T20:22:22;9.90;;;4.00;;
84303;SDS011;74469;52.520;16.998;2023-12-29T20:27:26;14.10;;;5.80;;
84303;SDS011;74469;52.520;16.998;2023-12-29T20:32:29;21.30;;;8.90;;
84303;SDS011;74469;52.520;16.998;2023-12-29T20:37:32;9.40;;;5.00;;
84303;SDS011;74469;52.520;16.998;2023-12-29T20:42:34;17.20;;;10.60;;
84303;SDS011;74469;52.520;16.998;2023-12-29T20:47:37;8.50;;;5.00;;
84303;SDS011;74469;52.520;16.998;2023-12-29T20:52:40;2.50;;;1.80;;
84303;SDS011;74469;52.520;16.998;2023-12-29T20:57:43;4.70;;;2.80;;
84303;SDS011;74469;52.520;16.998;2023-12-29T21:02:45;2.00;;;1.50;;
84303;SDS011;74469;52.520;16.998;2023-12-29T21:07:48;4.50;;;2.60;;
84303;SDS011;74469;52.520;16.998;2023-12-29T21:12:51;3.70;;;2.50;;
84303;SDS011;74469;52.520;16.998;2023-12-29T21:17:57;2.70;;;2.10;;
84303;SDS011;74469;52.520;16.998;2023-12-29T21:23:00;2.30;;;1.40;;
84303;SDS011;74469;52.520;16.998;2023-12-29T21:28:03;4.40;;;1.90;;
84303;SDS011;74469;52.520;16.998;2023-12-29T21:33:06;2.10;;;1.00;;
84303;SDS011;74469;52.520;16.998;2023-12-29T21:38:09;2.50;;;1.50;;
84303;SDS011;74469;52.520;16.998;2023-12-29T21:43:11;1.90;;;0.90;;
84303;SDS011;74469;52.520;16.998;2023-12-29T21:48:18;1.90;;;1.10;;
84303;SDS011;74469;52.520;16.998;2023-12-29T21:53:20;1.90;;;1.40;;
84303;SDS011;74469;52.520;16.998;2023-12-29T21:58:24;2.80;;;1.70;;
84303;SDS011;74469;52.520;16.998;2023-12-29T22:03:27;2.50;;;1.60;;
84303;SDS011;74469;52.520;16.998;2023-12-29T22:08:30;2.70;;;1.50;;
84303;SDS011;74469;52.520;16.998;2023-12-29T22:13:32;3.20;;;2.10;;
84303;SDS011;74469;52.520;16.998;2023-12-29T22:23:49;3.00;;;1.50;;
84303;SDS011;74469;52.520;16.998;2023-12-29T22:28:51;2.80;;;2.00;;
84303;SDS011;74469;52.520;16.998;2023-12-29T22:33:54;1.90;;;1.20;;
84303;SDS011;74469;52.520;16.998;2023-12-29T22:38:57;2.50;;;1.50;;
84303;SDS011;74469;52.520;16.998;2023-12-29T22:44:00;4.70;;;1.30;;
84303;SDS011;74469;52.520;16.998;2023-12-29T22:49:02;2.00;;;0.70;;
84303;SDS011;74469;52.520;16.998;2023-12-29T22:54:05;1.80;;;1.40;;
84303;SDS011;74469;52.520;16.998;2023-12-29T22:59:08;1.70;;;1.00;;
84303;SDS011;74469;52.520;16.998;2023-12-29T23:04:11;1.30;;;0.80;;
84303;SDS011;74469;52.520;16.998;2023-12-29T23:09:13;0.60;;;0.60;;
84303;SDS011;74469;52.520;16.998;2023-12-29T23:14:17;0.70;;;0.50;;
84303;SDS011;74469;52.520;16.998;2023-12-29T23:19:20;1.70;;;1.20;;
84303;SDS011;74469;52.520;16.998;2023-12-29T23:24:23;1.40;;;0.30;;
84303;SDS011;74469;52.520;16.998;2023-12-29T23:29:25;0.50;;;0.30;;
84303;SDS011;74469;52.520;16.998;2023-12-29T23:34:28;1.20;;;0.50;;
84303;SDS011;74469;52.520;16.998;2023-12-29T23:39:31;0.80;;;0.70;;
84303;SDS011;74469;52.520;16.998;2023-12-29T23:44:35;1.20;;;0.60;;
84303;SDS011;74469;52.520;16.998;2023-12-29T23:49:38;1.50;;;0.50;;
84303;SDS011;74469;52.520;16.998;2023-12-29T23:54:41;1.00;;;0.80;;
84303;SDS011;74469;52.520;16.998;2023-12-29T23:59:43;1.30;;;0.70;;
